createdAt,value
2017-07-07T00:00:36.861Z,0
2017-07-07T00:01:17.445Z,0
2017-07-07T00:01:58.020Z,0
2017-07-07T00:02:38.599Z,0
2017-07-07T00:03:19.178Z,0
2017-07-07T00:03:59.767Z,0
2017-07-07T00:04:40.393Z,0
2017-07-07T00:05:21.007Z,0
2017-07-07T00:06:01.563Z,0
2017-07-07T00:06:42.141Z,0
2017-07-07T00:07:22.718Z,0
2017-07-07T00:08:03.312Z,0
2017-07-07T00:08:43.911Z,0
2017-07-07T00:09:24.492Z,0
2017-07-07T00:10:05.081Z,0
2017-07-07T00:10:45.659Z,0
2017-07-07T00:11:26.242Z,0
2017-07-07T00:12:06.824Z,0
2017-07-07T00:12:47.387Z,0
2017-07-07T00:13:27.965Z,0
2017-07-07T00:14:08.554Z,0
2017-07-07T00:14:50.238Z,0
2017-07-07T00:15:30.817Z,0
2017-07-07T00:16:11.392Z,0
2017-07-07T00:16:51.974Z,0
2017-07-07T00:17:32.554Z,0
2017-07-07T00:18:13.122Z,0
2017-07-07T00:18:53.691Z,0
2017-07-07T00:19:34.270Z,0
2017-07-07T00:20:14.865Z,0
2017-07-07T00:20:55.448Z,0
2017-07-07T00:21:36.029Z,0
2017-07-07T00:22:16.597Z,0
2017-07-07T00:22:57.169Z,0
2017-07-07T00:23:37.792Z,0
2017-07-07T00:24:18.322Z,0
2017-07-07T00:24:58.899Z,0
2017-07-07T00:25:39.465Z,0
2017-07-07T00:26:20.042Z,0
2017-07-07T00:27:00.607Z,0
2017-07-07T00:27:41.176Z,0
2017-07-07T00:28:21.751Z,0
2017-07-07T00:29:02.309Z,0
2017-07-07T00:29:42.881Z,0
2017-07-07T00:30:23.452Z,0
2017-07-07T00:31:04.055Z,0
2017-07-07T00:31:44.638Z,0
2017-07-07T00:32:25.191Z,0
2017-07-07T00:33:05.767Z,0
2017-07-07T00:33:46.339Z,0
2017-07-07T00:34:26.902Z,0
2017-07-07T00:35:07.499Z,0
2017-07-07T00:35:48.076Z,0
2017-07-07T00:36:28.644Z,0
2017-07-07T00:37:09.253Z,0
2017-07-07T00:37:49.830Z,0
2017-07-07T00:38:30.410Z,0
2017-07-07T00:39:10.982Z,0
2017-07-07T00:39:51.564Z,0
2017-07-07T00:40:32.154Z,0
2017-07-07T00:41:12.722Z,0
2017-07-07T00:41:53.285Z,0
2017-07-07T00:42:33.900Z,0
2017-07-07T00:43:14.483Z,0
2017-07-07T00:43:55.070Z,0
2017-07-07T00:44:35.654Z,0
2017-07-07T00:45:16.220Z,0
2017-07-07T00:45:56.794Z,0
2017-07-07T00:46:37.376Z,0
2017-07-07T00:47:18.000Z,0
2017-07-07T00:47:58.609Z,0
2017-07-07T00:48:39.203Z,0
2017-07-07T00:49:19.781Z,0
2017-07-07T00:50:00.356Z,0
2017-07-07T00:50:40.929Z,0
2017-07-07T00:51:21.510Z,0
2017-07-07T00:52:02.082Z,0
2017-07-07T00:52:42.656Z,0
2017-07-07T00:53:23.225Z,0
2017-07-07T00:54:03.799Z,0
2017-07-07T00:54:44.369Z,0
2017-07-07T00:55:24.942Z,0
2017-07-07T00:56:05.510Z,0
2017-07-07T00:56:46.084Z,0
2017-07-07T00:57:26.733Z,0
2017-07-07T00:58:07.263Z,0
2017-07-07T00:58:47.827Z,0
2017-07-07T00:59:28.405Z,0
2017-07-07T01:00:09.033Z,0
2017-07-07T01:00:49.594Z,0
2017-07-07T01:01:30.186Z,0
2017-07-07T01:02:10.767Z,0
2017-07-07T01:02:51.334Z,0
2017-07-07T01:03:31.902Z,0
2017-07-07T01:04:12.492Z,0
2017-07-07T01:04:53.075Z,0
2017-07-07T01:05:33.642Z,0
2017-07-07T01:06:14.264Z,0
2017-07-07T01:06:54.871Z,0
2017-07-07T01:07:35.460Z,0
2017-07-07T01:08:16.035Z,0
2017-07-07T01:08:56.622Z,0
2017-07-07T01:09:37.195Z,0
2017-07-07T01:10:17.780Z,0
2017-07-07T01:10:58.358Z,0
2017-07-07T01:11:38.941Z,0
2017-07-07T01:12:19.521Z,0
2017-07-07T01:13:00.100Z,0
2017-07-07T01:13:40.677Z,0
2017-07-07T01:14:21.239Z,0
2017-07-07T01:15:01.805Z,0
2017-07-07T01:15:42.395Z,0
2017-07-07T01:16:22.960Z,0
2017-07-07T01:17:03.533Z,0
2017-07-07T01:17:44.101Z,0
2017-07-07T01:18:24.686Z,0
2017-07-07T01:19:05.248Z,0
2017-07-07T01:19:45.811Z,0
2017-07-07T01:20:26.381Z,0
2017-07-07T01:21:06.965Z,0
2017-07-07T01:21:47.549Z,0
2017-07-07T01:22:28.108Z,0
2017-07-07T01:23:08.679Z,0
2017-07-07T01:23:49.247Z,0
2017-07-07T01:24:29.818Z,0
2017-07-07T01:25:10.391Z,0
2017-07-07T01:25:50.975Z,0
2017-07-07T01:26:31.547Z,0
2017-07-07T01:27:12.122Z,0
2017-07-07T01:27:52.708Z,0
2017-07-07T01:28:33.280Z,0
2017-07-07T01:29:13.857Z,0
2017-07-07T01:29:54.444Z,0
2017-07-07T01:30:34.987Z,0
2017-07-07T01:31:15.570Z,0
2017-07-07T01:31:56.141Z,0
2017-07-07T01:32:36.714Z,0
2017-07-07T01:33:17.289Z,0
2017-07-07T01:33:57.861Z,0
2017-07-07T01:34:38.473Z,0
2017-07-07T01:35:19.079Z,0
2017-07-07T01:35:59.660Z,0
2017-07-07T01:36:40.245Z,0
2017-07-07T01:37:20.811Z,0
2017-07-07T01:38:01.387Z,0
2017-07-07T01:38:41.954Z,0
2017-07-07T01:39:22.528Z,0
2017-07-07T01:40:03.100Z,0
2017-07-07T01:40:43.671Z,0
2017-07-07T01:41:24.246Z,0
2017-07-07T01:42:04.812Z,0
2017-07-07T01:42:45.380Z,0
2017-07-07T01:43:25.953Z,0
2017-07-07T01:44:06.516Z,0
2017-07-07T01:44:47.107Z,0
2017-07-07T01:45:27.684Z,0
2017-07-07T01:46:08.267Z,0
2017-07-07T01:46:48.823Z,0
2017-07-07T01:47:29.395Z,0
2017-07-07T01:48:10.093Z,0
2017-07-07T01:48:50.678Z,0
2017-07-07T01:49:31.299Z,0
2017-07-07T01:50:11.871Z,0
2017-07-07T01:50:52.432Z,0
2017-07-07T01:51:33.023Z,0
2017-07-07T01:52:13.607Z,0
2017-07-07T01:52:54.187Z,0
2017-07-07T01:53:34.761Z,0
2017-07-07T01:54:15.330Z,0
2017-07-07T01:54:55.909Z,0
2017-07-07T01:55:36.475Z,0
2017-07-07T01:56:17.043Z,0
2017-07-07T01:56:57.630Z,0
2017-07-07T01:57:38.201Z,0
2017-07-07T01:58:18.782Z,0
2017-07-07T01:58:59.343Z,0
2017-07-07T01:59:39.919Z,0
2017-07-07T02:00:20.486Z,0
2017-07-07T02:01:01.059Z,0
2017-07-07T02:01:41.645Z,0
2017-07-07T02:02:22.208Z,0
2017-07-07T02:03:02.788Z,0
2017-07-07T02:03:43.358Z,0
2017-07-07T02:04:23.933Z,0
2017-07-07T02:05:04.506Z,0
2017-07-07T02:05:45.087Z,0
2017-07-07T02:06:25.675Z,0
2017-07-07T02:07:06.276Z,0
2017-07-07T02:07:46.828Z,0
2017-07-07T02:08:27.400Z,0
2017-07-07T02:09:07.967Z,0
2017-07-07T02:09:48.539Z,0
2017-07-07T02:10:29.177Z,0
2017-07-07T02:11:09.701Z,0
2017-07-07T02:11:50.254Z,0
2017-07-07T02:12:30.818Z,0
2017-07-07T02:13:11.382Z,0
2017-07-07T02:13:51.974Z,0
2017-07-07T02:14:32.611Z,0
2017-07-07T02:15:13.183Z,0
2017-07-07T02:15:53.750Z,0
2017-07-07T02:16:35.133Z,0
2017-07-07T02:17:15.705Z,0
2017-07-07T02:17:56.276Z,0
2017-07-07T02:18:36.931Z,4
2017-07-07T02:19:17.506Z,4
2017-07-07T02:19:58.084Z,4
2017-07-07T02:20:38.644Z,0
2017-07-07T02:21:19.233Z,0
2017-07-07T02:21:59.823Z,0
2017-07-07T02:22:40.407Z,4
2017-07-07T02:23:20.984Z,4
2017-07-07T02:24:01.556Z,4
2017-07-07T02:24:42.126Z,4
2017-07-07T02:25:22.697Z,4
2017-07-07T02:26:03.284Z,4
2017-07-07T02:26:43.867Z,4
2017-07-07T02:27:24.457Z,4
2017-07-07T02:28:05.103Z,4
2017-07-07T02:28:45.684Z,8
2017-07-07T02:29:26.257Z,4
2017-07-07T02:30:06.825Z,4
2017-07-07T02:30:47.399Z,8
2017-07-07T02:31:27.954Z,8
2017-07-07T02:32:08.530Z,8
2017-07-07T02:32:49.110Z,8
2017-07-07T02:33:29.673Z,8
2017-07-07T02:34:10.263Z,12
2017-07-07T02:34:50.836Z,12
2017-07-07T02:35:31.411Z,12
2017-07-07T02:36:11.993Z,12
2017-07-07T02:36:52.565Z,12
2017-07-07T02:37:33.143Z,12
2017-07-07T02:38:13.705Z,16
2017-07-07T02:38:54.279Z,16
2017-07-07T02:39:34.847Z,20
2017-07-07T02:40:15.417Z,16
2017-07-07T02:40:55.982Z,20
2017-07-07T02:41:36.553Z,20
2017-07-07T02:42:17.135Z,24
2017-07-07T02:42:57.701Z,24
2017-07-07T02:43:38.272Z,24
2017-07-07T02:44:18.870Z,28
2017-07-07T02:44:59.446Z,28
2017-07-07T02:45:40.006Z,32
2017-07-07T02:46:20.561Z,32
2017-07-07T02:47:01.136Z,36
2017-07-07T02:47:41.709Z,36
2017-07-07T02:48:22.286Z,40
2017-07-07T02:49:02.860Z,44
2017-07-07T02:49:43.430Z,44
2017-07-07T02:50:24.002Z,44
2017-07-07T02:51:04.557Z,48
2017-07-07T02:51:45.162Z,52
2017-07-07T02:52:25.701Z,56
2017-07-07T02:53:06.264Z,60
2017-07-07T02:53:46.838Z,64
2017-07-07T02:54:27.414Z,68
2017-07-07T02:55:08.008Z,72
2017-07-07T02:55:48.585Z,80
2017-07-07T02:56:29.164Z,84
2017-07-07T02:57:09.793Z,88
2017-07-07T02:57:50.312Z,92
2017-07-07T02:58:30.880Z,96
2017-07-07T02:59:11.451Z,100
2017-07-07T02:59:52.019Z,104
2017-07-07T03:00:32.601Z,108
2017-07-07T03:02:50.798Z,120
2017-07-07T03:03:31.418Z,124
2017-07-07T03:04:11.995Z,128
2017-07-07T03:04:52.566Z,132
2017-07-07T03:05:33.170Z,136
2017-07-07T03:06:13.755Z,140
2017-07-07T03:06:54.372Z,140
2017-07-07T03:07:34.951Z,144
2017-07-07T03:08:15.519Z,152
2017-07-07T03:08:56.109Z,152
2017-07-07T03:09:36.668Z,160
2017-07-07T03:10:17.248Z,164
2017-07-07T03:10:57.828Z,168
2017-07-07T03:11:38.383Z,172
2017-07-07T03:12:18.951Z,176
2017-07-07T03:12:59.525Z,176
2017-07-07T03:13:40.109Z,184
2017-07-07T03:14:20.705Z,188
2017-07-07T03:15:01.265Z,196
2017-07-07T03:15:41.837Z,200
2017-07-07T03:16:22.393Z,208
2017-07-07T03:17:02.968Z,216
2017-07-07T03:17:43.539Z,220
2017-07-07T03:18:24.125Z,232
2017-07-07T03:19:04.707Z,240
2017-07-07T03:19:45.269Z,252
2017-07-07T03:20:25.834Z,260
2017-07-07T03:21:06.421Z,272
2017-07-07T03:21:46.991Z,280
2017-07-07T03:22:27.578Z,288
2017-07-07T03:23:08.142Z,296
2017-07-07T03:23:48.730Z,304
2017-07-07T03:24:29.315Z,312
2017-07-07T03:25:09.883Z,316
2017-07-07T03:25:50.450Z,324
2017-07-07T03:26:31.223Z,332
2017-07-07T03:27:11.641Z,352
2017-07-07T03:27:52.212Z,364
2017-07-07T03:28:32.811Z,384
2017-07-07T03:29:13.395Z,408
2017-07-07T03:29:53.986Z,432
2017-07-07T03:30:34.553Z,460
2017-07-07T03:31:15.118Z,488
2017-07-07T03:31:55.697Z,528
2017-07-07T03:32:36.267Z,568
2017-07-07T03:33:16.858Z,612
2017-07-07T03:33:57.455Z,636
2017-07-07T03:34:38.016Z,652
2017-07-07T03:35:18.605Z,664
2017-07-07T03:35:59.206Z,676
2017-07-07T03:36:39.770Z,696
2017-07-07T03:37:20.374Z,712
2017-07-07T03:38:00.946Z,736
2017-07-07T03:38:41.513Z,760
2017-07-07T03:39:22.094Z,796
2017-07-07T03:40:02.691Z,844
2017-07-07T03:40:43.250Z,892
2017-07-07T03:41:23.827Z,936
2017-07-07T03:42:04.422Z,984
2017-07-07T03:42:45.016Z,1040
2017-07-07T03:43:25.608Z,1088
2017-07-07T03:44:06.179Z,1140
2017-07-07T03:44:46.741Z,1188
2017-07-07T03:45:27.319Z,1216
2017-07-07T03:46:07.886Z,1220
2017-07-07T03:46:48.481Z,1204
2017-07-07T03:47:29.072Z,1188
2017-07-07T03:48:09.645Z,1180
2017-07-07T03:48:50.249Z,1176
2017-07-07T03:49:30.828Z,1168
2017-07-07T03:50:11.422Z,1148
2017-07-07T03:50:51.993Z,1120
2017-07-07T03:51:32.580Z,1088
2017-07-07T03:52:13.166Z,1072
2017-07-07T03:52:53.726Z,1060
2017-07-07T03:53:34.294Z,1056
2017-07-07T03:54:14.893Z,1048
2017-07-07T03:54:55.461Z,1028
2017-07-07T03:55:36.046Z,1000
2017-07-07T03:56:16.621Z,968
2017-07-07T03:56:57.205Z,940
2017-07-07T03:57:37.801Z,916
2017-07-07T03:58:18.400Z,896
2017-07-07T03:58:59.006Z,868
2017-07-07T03:59:39.578Z,832
2017-07-07T04:00:20.147Z,792
2017-07-07T04:01:00.755Z,744
2017-07-07T04:01:41.334Z,696
2017-07-07T04:02:21.904Z,652
2017-07-07T04:03:02.462Z,604
2017-07-07T04:03:43.049Z,572
2017-07-07T04:04:23.626Z,544
2017-07-07T04:05:04.189Z,532
2017-07-07T04:05:44.787Z,532
2017-07-07T04:06:25.355Z,540
2017-07-07T04:07:05.921Z,556
2017-07-07T04:07:46.486Z,568
2017-07-07T04:08:27.062Z,592
2017-07-07T04:09:07.629Z,608
2017-07-07T04:09:48.197Z,628
2017-07-07T04:10:28.767Z,644
2017-07-07T04:11:09.367Z,664
2017-07-07T04:11:49.960Z,688
2017-07-07T04:12:30.549Z,704
2017-07-07T04:13:11.115Z,724
2017-07-07T04:13:51.689Z,752
2017-07-07T04:14:32.262Z,780
2017-07-07T04:15:12.842Z,808
2017-07-07T04:15:53.402Z,824
2017-07-07T04:16:33.971Z,824
2017-07-07T04:17:14.547Z,816
2017-07-07T04:17:55.119Z,808
2017-07-07T04:18:35.717Z,796
2017-07-07T04:19:16.286Z,788
2017-07-07T04:19:56.888Z,788
2017-07-07T04:20:37.459Z,804
2017-07-07T04:21:18.057Z,832
2017-07-07T04:21:58.664Z,852
2017-07-07T04:22:39.244Z,872
2017-07-07T04:23:19.804Z,904
2017-07-07T04:24:00.405Z,936
2017-07-07T04:24:41.091Z,968
2017-07-07T04:25:21.676Z,992
2017-07-07T04:26:02.257Z,1008
2017-07-07T04:26:42.850Z,1028
2017-07-07T04:27:23.418Z,1052
2017-07-07T04:28:04.012Z,1080
2017-07-07T04:28:44.591Z,1104
2017-07-07T04:29:25.217Z,1124
2017-07-07T04:30:05.806Z,1136
2017-07-07T04:30:46.381Z,1152
2017-07-07T04:31:26.962Z,1164
2017-07-07T04:32:07.586Z,1168
2017-07-07T04:32:48.157Z,1168
2017-07-07T04:33:28.770Z,1164
2017-07-07T04:34:09.422Z,1152
2017-07-07T04:34:50.010Z,1132
2017-07-07T04:35:30.624Z,1124
2017-07-07T04:36:11.221Z,1128
2017-07-07T04:36:51.802Z,1120
2017-07-07T04:37:32.371Z,1112
2017-07-07T04:38:12.935Z,1092
2017-07-07T04:38:53.496Z,1060
2017-07-07T04:39:34.079Z,1024
2017-07-07T04:40:14.641Z,988
2017-07-07T04:40:55.197Z,956
2017-07-07T04:41:35.773Z,940
2017-07-07T04:42:16.334Z,928
2017-07-07T04:42:56.938Z,928
2017-07-07T04:43:37.525Z,940
2017-07-07T04:44:18.091Z,948
2017-07-07T04:44:58.669Z,948
2017-07-07T04:45:39.243Z,944
2017-07-07T04:46:19.808Z,916
2017-07-07T04:47:00.382Z,876
2017-07-07T04:47:40.961Z,824
2017-07-07T04:48:21.553Z,772
2017-07-07T04:49:03.364Z,720
2017-07-07T04:49:43.934Z,672
2017-07-07T04:50:24.531Z,632
2017-07-07T04:51:05.105Z,608
2017-07-07T04:51:45.668Z,592
2017-07-07T04:52:26.230Z,592
2017-07-07T04:53:06.934Z,600
2017-07-07T04:53:47.493Z,608
2017-07-07T04:54:28.079Z,628
2017-07-07T04:55:08.642Z,652
2017-07-07T04:55:49.220Z,684
2017-07-07T04:56:29.837Z,712
2017-07-07T04:57:10.362Z,736
2017-07-07T04:57:50.933Z,760
2017-07-07T04:58:31.611Z,772
2017-07-07T04:59:12.186Z,764
2017-07-07T04:59:52.769Z,740
2017-07-07T05:00:33.337Z,716
2017-07-07T05:01:13.924Z,688
2017-07-07T05:01:54.502Z,660
2017-07-07T05:02:35.086Z,632
2017-07-07T05:03:15.709Z,600
2017-07-07T05:03:56.296Z,572
2017-07-07T05:04:36.871Z,552
2017-07-07T05:05:17.483Z,536
2017-07-07T05:05:58.092Z,524
2017-07-07T05:06:38.688Z,516
2017-07-07T05:07:19.291Z,500
2017-07-07T05:07:59.865Z,488
2017-07-07T05:08:40.439Z,460
2017-07-07T05:09:21.013Z,436
2017-07-07T05:10:01.603Z,408
2017-07-07T05:10:42.199Z,380
2017-07-07T05:11:22.769Z,360
2017-07-07T05:12:03.346Z,336
2017-07-07T05:12:43.906Z,312
2017-07-07T05:13:24.470Z,300
2017-07-07T05:14:05.065Z,288
2017-07-07T05:14:45.658Z,280
2017-07-07T05:15:26.253Z,268
2017-07-07T05:16:06.822Z,260
2017-07-07T05:16:47.414Z,248
2017-07-07T05:17:27.970Z,240
2017-07-07T05:18:08.541Z,236
2017-07-07T05:18:49.100Z,236
2017-07-07T05:19:29.666Z,232
2017-07-07T05:20:10.234Z,240
2017-07-07T05:20:50.811Z,240
2017-07-07T05:21:31.366Z,248
2017-07-07T05:22:11.936Z,260
2017-07-07T05:22:52.534Z,280
2017-07-07T05:23:33.125Z,300
2017-07-07T05:24:13.691Z,312
2017-07-07T05:24:54.265Z,328
2017-07-07T05:25:34.851Z,344
2017-07-07T05:26:15.413Z,356
2017-07-07T05:26:55.993Z,356
2017-07-07T05:27:36.567Z,340
2017-07-07T05:28:17.136Z,324
2017-07-07T05:28:57.696Z,308
2017-07-07T05:29:38.287Z,296
2017-07-07T05:30:18.852Z,292
2017-07-07T05:30:59.451Z,300
2017-07-07T05:31:40.027Z,320
2017-07-07T05:32:20.599Z,332
2017-07-07T05:33:01.210Z,348
2017-07-07T05:33:41.820Z,364
2017-07-07T05:34:22.396Z,376
2017-07-07T05:35:02.969Z,388
2017-07-07T05:35:43.535Z,408
2017-07-07T05:36:24.093Z,420
2017-07-07T05:37:04.671Z,428
2017-07-07T05:37:45.277Z,436
2017-07-07T05:38:25.864Z,444
2017-07-07T05:39:06.451Z,448
2017-07-07T05:39:47.041Z,460
2017-07-07T05:40:27.628Z,480
2017-07-07T05:41:08.189Z,520
2017-07-07T05:41:48.758Z,572
2017-07-07T05:42:29.336Z,632
2017-07-07T05:43:09.894Z,692
2017-07-07T05:43:50.478Z,744
2017-07-07T05:44:31.060Z,784
2017-07-07T05:45:11.630Z,824
2017-07-07T05:45:52.209Z,856
2017-07-07T05:46:32.777Z,884
2017-07-07T05:47:13.343Z,920
2017-07-07T05:47:53.914Z,960
2017-07-07T05:48:34.492Z,992
2017-07-07T05:49:15.079Z,1020
2017-07-07T05:49:55.633Z,1044
2017-07-07T05:50:36.256Z,1060
2017-07-07T05:51:16.806Z,1076
2017-07-07T05:51:57.388Z,1076
2017-07-07T05:52:37.965Z,1068
2017-07-07T05:53:18.526Z,1064
2017-07-07T05:53:59.094Z,1044
2017-07-07T05:54:39.667Z,1008
2017-07-07T05:55:20.243Z,964
2017-07-07T05:56:00.835Z,932
2017-07-07T05:56:41.394Z,908
2017-07-07T05:57:21.963Z,900
2017-07-07T05:58:02.544Z,888
2017-07-07T05:58:43.117Z,880
2017-07-07T05:59:23.678Z,884
2017-07-07T06:00:04.249Z,892
2017-07-07T06:00:44.954Z,896
2017-07-07T06:01:25.525Z,904
2017-07-07T06:02:06.091Z,928
2017-07-07T06:02:46.669Z,956
2017-07-07T06:03:27.254Z,976
2017-07-07T06:04:07.877Z,992
2017-07-07T06:04:49.303Z,1020
2017-07-07T06:05:29.812Z,1056
2017-07-07T06:06:10.369Z,1112
2017-07-07T06:06:50.948Z,1156
2017-07-07T06:07:32.188Z,1180
2017-07-07T06:08:12.808Z,1180
2017-07-07T06:08:53.404Z,1188
2017-07-07T06:09:34.013Z,1204
2017-07-07T06:10:14.875Z,1216
2017-07-07T06:10:55.454Z,1216
2017-07-07T06:11:36.037Z,1212
2017-07-07T06:12:16.617Z,1212
2017-07-07T06:12:57.204Z,1188
2017-07-07T06:13:37.775Z,1160
2017-07-07T06:14:18.336Z,1136
2017-07-07T06:14:58.899Z,1116
2017-07-07T06:15:39.466Z,1108
2017-07-07T06:16:20.055Z,1096
2017-07-07T06:17:00.621Z,1096
2017-07-07T06:17:41.191Z,1096
2017-07-07T06:18:21.795Z,1108
2017-07-07T06:19:02.375Z,1132
2017-07-07T06:19:42.941Z,1164
2017-07-07T06:20:23.501Z,1196
2017-07-07T06:21:04.081Z,1244
2017-07-07T06:21:44.652Z,1300
2017-07-07T06:22:25.241Z,1376
2017-07-07T06:23:05.820Z,1460
2017-07-07T06:23:46.388Z,1548
2017-07-07T06:24:26.973Z,1644
2017-07-07T06:25:07.567Z,1716
2017-07-07T06:25:48.154Z,1756
2017-07-07T06:26:28.732Z,1772
2017-07-07T06:27:09.303Z,1776
2017-07-07T06:27:49.874Z,1776
2017-07-07T06:28:30.453Z,1768
2017-07-07T06:29:11.020Z,1788
2017-07-07T06:29:51.606Z,1828
2017-07-07T06:30:32.203Z,1872
2017-07-07T06:31:12.787Z,1912
2017-07-07T06:31:53.363Z,1948
2017-07-07T06:32:33.935Z,1972
2017-07-07T06:33:14.506Z,2020
2017-07-07T06:33:55.086Z,2060
2017-07-07T06:34:35.645Z,2160
2017-07-07T06:35:16.241Z,2336
2017-07-07T06:35:56.813Z,2400
2017-07-07T06:36:37.386Z,2428
2017-07-07T06:37:17.954Z,2380
2017-07-07T06:37:58.524Z,2352
2017-07-07T06:38:39.092Z,2312
2017-07-07T06:39:19.723Z,2200
2017-07-07T06:40:00.292Z,2068
2017-07-07T06:40:40.868Z,1948
2017-07-07T06:41:21.444Z,1848
2017-07-07T06:42:02.016Z,1732
2017-07-07T06:42:42.604Z,1592
2017-07-07T06:43:23.174Z,1452
2017-07-07T06:44:03.785Z,1332
2017-07-07T06:44:44.353Z,1216
2017-07-07T06:45:24.935Z,1096
2017-07-07T06:46:05.509Z,1004
2017-07-07T06:46:46.174Z,948
2017-07-07T06:47:26.787Z,916
2017-07-07T06:48:07.370Z,896
2017-07-07T06:48:47.948Z,880
2017-07-07T06:49:28.514Z,876
2017-07-07T06:50:09.278Z,876
2017-07-07T06:50:50.147Z,872
2017-07-07T06:51:30.847Z,852
2017-07-07T06:52:11.448Z,836
2017-07-07T06:52:52.055Z,824
2017-07-07T06:53:32.633Z,804
2017-07-07T06:54:13.403Z,788
2017-07-07T06:54:53.978Z,772
2017-07-07T06:55:34.555Z,772
2017-07-07T06:56:15.191Z,792
2017-07-07T06:56:55.868Z,828
2017-07-07T06:57:36.474Z,860
2017-07-07T06:58:17.122Z,856
2017-07-07T06:58:57.661Z,832
2017-07-07T06:59:38.235Z,792
2017-07-07T07:00:18.805Z,744
2017-07-07T07:00:59.373Z,700
2017-07-07T07:01:39.954Z,664
2017-07-07T07:02:20.526Z,652
2017-07-07T07:03:01.109Z,644
2017-07-07T07:03:41.794Z,648
2017-07-07T07:04:22.499Z,644
2017-07-07T07:05:03.046Z,628
2017-07-07T07:05:43.612Z,616
2017-07-07T07:06:24.205Z,600
2017-07-07T07:07:04.775Z,588
2017-07-07T07:07:45.575Z,588
2017-07-07T07:08:26.184Z,592
2017-07-07T07:09:06.810Z,604
2017-07-07T07:09:47.404Z,616
2017-07-07T07:10:27.991Z,636
2017-07-07T07:11:08.580Z,644
2017-07-07T07:11:49.178Z,672
2017-07-07T07:12:29.759Z,748
2017-07-07T07:13:10.344Z,856
2017-07-07T07:13:50.944Z,972
2017-07-07T07:14:31.535Z,1036
2017-07-07T07:15:12.141Z,1056
2017-07-07T07:15:52.723Z,1036
2017-07-07T07:16:33.572Z,1016
2017-07-07T07:17:14.183Z,1036
2017-07-07T07:17:54.765Z,1044
2017-07-07T07:18:35.349Z,1100
2017-07-07T07:19:15.918Z,1180
2017-07-07T07:19:56.541Z,1256
2017-07-07T07:20:37.112Z,1292
2017-07-07T07:21:17.806Z,1284
2017-07-07T07:21:58.368Z,1292
2017-07-07T07:22:38.935Z,1256
2017-07-07T07:23:19.521Z,1256
2017-07-07T07:24:00.097Z,1228
2017-07-07T07:24:40.678Z,1196
2017-07-07T07:25:21.307Z,1152
2017-07-07T07:26:01.907Z,1128
2017-07-07T07:26:42.510Z,1144
2017-07-07T07:27:23.084Z,1212
2017-07-07T07:28:03.654Z,1308
2017-07-07T07:28:44.217Z,1320
2017-07-07T07:29:24.792Z,1244
2017-07-07T07:30:05.389Z,1136
2017-07-07T07:30:45.982Z,1036
2017-07-07T07:31:26.613Z,956
2017-07-07T07:32:07.157Z,924
2017-07-07T07:32:47.730Z,908
2017-07-07T07:33:28.297Z,884
2017-07-07T07:34:08.880Z,860
2017-07-07T07:34:49.460Z,852
2017-07-07T07:35:30.049Z,880
2017-07-07T07:36:10.621Z,900
2017-07-07T07:36:51.223Z,916
2017-07-07T07:37:31.798Z,956
2017-07-07T07:38:12.369Z,1004
2017-07-07T07:38:52.970Z,1060
2017-07-07T07:39:33.551Z,1116
2017-07-07T07:40:14.170Z,1188
2017-07-07T07:40:54.758Z,1256
2017-07-07T07:41:35.342Z,1316
2017-07-07T07:42:15.930Z,1388
2017-07-07T07:42:56.534Z,1532
2017-07-07T07:43:37.128Z,1680
2017-07-07T07:44:17.723Z,1772
2017-07-07T07:44:58.292Z,1820
2017-07-07T07:45:38.891Z,1792
2017-07-07T07:46:19.453Z,1672
2017-07-07T07:47:00.023Z,1524
2017-07-07T07:47:40.595Z,1380
2017-07-07T07:48:21.187Z,1248
2017-07-07T07:49:01.822Z,1120
2017-07-07T07:49:42.346Z,1016
2017-07-07T07:50:22.941Z,924
2017-07-07T07:51:03.544Z,848
2017-07-07T07:51:44.108Z,820
2017-07-07T07:52:24.716Z,796
2017-07-07T07:53:05.286Z,808
2017-07-07T07:53:45.950Z,816
2017-07-07T07:54:26.512Z,824
2017-07-07T07:55:07.102Z,832
2017-07-07T07:55:47.676Z,856
2017-07-07T07:56:28.248Z,884
2017-07-07T07:57:08.837Z,920
2017-07-07T07:57:49.405Z,948
2017-07-07T07:58:29.970Z,984
2017-07-07T07:59:10.562Z,1048
2017-07-07T07:59:51.135Z,1112
2017-07-07T08:00:31.706Z,1128
2017-07-07T08:01:12.279Z,1140
2017-07-07T08:01:52.870Z,1144
2017-07-07T08:02:33.451Z,1160
2017-07-07T08:03:14.027Z,1184
2017-07-07T08:03:54.608Z,1228
2017-07-07T08:04:35.169Z,1276
2017-07-07T08:05:15.758Z,1364
2017-07-07T08:05:56.347Z,1448
2017-07-07T08:06:36.920Z,1512
2017-07-07T08:07:17.534Z,1540
2017-07-07T08:07:58.102Z,1560
2017-07-07T08:08:38.708Z,1584
2017-07-07T08:09:19.273Z,1572
2017-07-07T08:09:59.858Z,1500
2017-07-07T08:10:40.444Z,1416
2017-07-07T08:11:21.015Z,1308
2017-07-07T08:12:01.648Z,1208
2017-07-07T08:12:42.220Z,1136
2017-07-07T08:13:22.788Z,1096
2017-07-07T08:14:03.362Z,1068
2017-07-07T08:14:43.919Z,1052
2017-07-07T08:15:24.493Z,1052
2017-07-07T08:16:05.085Z,1032
2017-07-07T08:16:45.650Z,1008
2017-07-07T08:17:26.209Z,992
2017-07-07T08:18:06.781Z,972
2017-07-07T08:18:47.348Z,944
2017-07-07T08:19:27.918Z,928
2017-07-07T08:20:08.497Z,904
2017-07-07T08:20:49.069Z,912
2017-07-07T08:21:29.634Z,928
2017-07-07T08:22:10.219Z,940
2017-07-07T08:22:50.792Z,960
2017-07-07T08:23:31.382Z,964
2017-07-07T08:24:11.948Z,984
2017-07-07T08:24:52.513Z,1008
2017-07-07T08:25:33.089Z,1072
2017-07-07T08:26:13.670Z,1140
2017-07-07T08:26:54.258Z,1184
2017-07-07T08:27:34.830Z,1292
2017-07-07T08:28:15.395Z,1404
2017-07-07T08:28:55.978Z,1540
2017-07-07T08:29:36.541Z,1684
2017-07-07T08:30:17.156Z,1796
2017-07-07T08:30:57.730Z,1868
2017-07-07T08:31:38.306Z,1832
2017-07-07T08:32:18.876Z,1796
2017-07-07T08:32:59.461Z,1812
2017-07-07T08:33:40.065Z,1828
2017-07-07T08:34:20.635Z,1836
2017-07-07T08:35:01.218Z,1748
2017-07-07T08:35:41.798Z,1628
2017-07-07T08:36:22.366Z,1500
2017-07-07T08:37:02.930Z,1384
2017-07-07T08:37:43.497Z,1272
2017-07-07T08:38:24.069Z,1164
2017-07-07T08:39:04.637Z,1088
2017-07-07T08:39:45.216Z,1044
2017-07-07T08:40:25.819Z,1000
2017-07-07T08:41:06.402Z,984
2017-07-07T08:41:46.977Z,968
2017-07-07T08:42:27.560Z,948
2017-07-07T08:43:08.152Z,928
2017-07-07T08:43:48.722Z,920
2017-07-07T08:44:29.284Z,932
2017-07-07T08:45:09.862Z,956
2017-07-07T08:45:50.439Z,968
2017-07-07T08:46:31.030Z,1000
2017-07-07T08:47:11.602Z,1036
2017-07-07T08:47:52.166Z,1076
2017-07-07T08:48:32.749Z,1084
2017-07-07T08:49:13.332Z,1080
2017-07-07T08:49:53.898Z,1076
2017-07-07T08:50:34.479Z,1076
2017-07-07T08:51:15.045Z,1060
2017-07-07T08:51:55.654Z,1032
2017-07-07T08:52:36.232Z,1004
2017-07-07T08:53:16.798Z,984
2017-07-07T08:53:57.377Z,960
2017-07-07T08:54:37.956Z,924
2017-07-07T08:55:18.540Z,900
2017-07-07T08:55:59.113Z,896
2017-07-07T08:56:40.125Z,900
2017-07-07T08:57:20.715Z,920
2017-07-07T08:58:01.330Z,932
2017-07-07T08:58:41.931Z,952
2017-07-07T08:59:22.497Z,960
2017-07-07T09:00:03.092Z,952
2017-07-07T09:00:43.673Z,936
2017-07-07T09:01:24.270Z,916
2017-07-07T09:02:05.084Z,908
2017-07-07T09:02:45.654Z,900
2017-07-07T09:03:26.228Z,904
2017-07-07T09:04:06.817Z,916
2017-07-07T09:04:47.393Z,916
2017-07-07T09:05:27.960Z,932
2017-07-07T09:06:08.530Z,940
2017-07-07T09:06:49.113Z,948
2017-07-07T09:07:29.737Z,948
2017-07-07T09:08:10.333Z,960
2017-07-07T09:08:50.909Z,972
2017-07-07T09:09:31.475Z,988
2017-07-07T09:10:12.097Z,1012
2017-07-07T09:10:52.666Z,1020
2017-07-07T09:11:33.248Z,1024
2017-07-07T09:12:13.809Z,1008
2017-07-07T09:12:54.501Z,1004
2017-07-07T09:13:35.007Z,992
2017-07-07T09:14:15.585Z,984
2017-07-07T09:14:56.157Z,980
2017-07-07T09:15:36.711Z,1000
2017-07-07T09:16:17.281Z,1040
2017-07-07T09:16:57.878Z,1088
2017-07-07T09:17:38.472Z,1096
2017-07-07T09:18:19.078Z,1112
2017-07-07T09:18:59.632Z,1116
2017-07-07T09:19:40.199Z,1148
2017-07-07T09:20:20.770Z,1200
2017-07-07T09:21:01.346Z,1264
2017-07-07T09:21:41.922Z,1308
2017-07-07T09:22:22.492Z,1320
2017-07-07T09:23:03.066Z,1332
2017-07-07T09:23:43.643Z,1364
2017-07-07T09:24:24.223Z,1428
2017-07-07T09:25:04.806Z,1492
2017-07-07T09:25:45.406Z,1544
2017-07-07T09:26:25.979Z,1572